sensor_id;sensor_type;location;lat;lon;timestamp;pressure;altitude;pressure_sealevel;temperature;humidity
76311;BME280;65120;59.304;18.294;2023-01-09T00:02:00;100088.16;;;4.32;78.15
76311;BME280;65120;59.304;18.294;2023-01-09T00:04:26;100089.91;;;4.36;78.51
76311;BME280;65120;59.304;18.294;2023-01-09T00:06:53;100091.59;;;4.35;78.51
76311;BME280;65120;59.304;18.294;2023-01-09T00:09:21;100094.19;;;4.35;78.75
76311;BME280;65120;59.304;18.294;2023-01-09T00:11:48;100083.84;;;4.35;78.24
76311;BME280;65120;59.304;18.294;2023-01-09T00:14:16;100083.00;;;4.32;78.37
76311;BME280;65120;59.304;18.294;2023-01-09T00:16:43;100076.06;;;4.35;78.31
76311;BME280;65120;59.304;18.294;2023-01-09T00:19:12;100069.22;;;4.33;78.45
76311;BME280;65120;59.304;18.294;2023-01-09T00:21:39;100082.13;;;4.36;78.31
76311;BME280;65120;59.304;18.294;2023-01-09T00:24:06;100081.25;;;4.37;78.48
76311;BME280;65120;59.304;18.294;2023-01-09T00:26:33;100081.25;;;4.37;78.46
76311;BME280;65120;59.304;18.294;2023-01-09T00:29:00;100076.97;;;4.34;78.55
76311;BME280;65120;59.304;18.294;2023-01-09T00:31:27;100073.53;;;4.34;78.28
76311;BME280;65120;59.304;18.294;2023-01-09T00:33:57;100081.22;;;4.38;78.57
76311;BME280;65120;59.304;18.294;2023-01-09T00:36:26;100072.63;;;4.38;78.36
76311;BME280;65120;59.304;18.294;2023-01-09T00:38:53;100072.63;;;4.38;78.52
76311;BME280;65120;59.304;18.294;2023-01-09T00:41:22;100069.19;;;4.39;78.55
76311;BME280;65120;59.304;18.294;2023-01-09T00:43:53;100079.53;;;4.39;78.53
76311;BME280;65120;59.304;18.294;2023-01-09T00:46:25;100073.50;;;4.40;78.52
76311;BME280;65120;59.304;18.294;2023-01-09T00:48:53;100067.47;;;4.39;78.69
76311;BME280;65120;59.304;18.294;2023-01-09T00:51:20;100076.06;;;4.40;78.75
76311;BME280;65120;59.304;18.294;2023-01-09T00:53:48;100068.31;;;4.40;78.62
76311;BME280;65120;59.304;18.294;2023-01-09T00:56:17;100067.44;;;4.41;78.65
76311;BME280;65120;59.304;18.294;2023-01-09T00:58:45;100064.00;;;4.42;78.76
76311;BME280;65120;59.304;18.294;2023-01-09T01:01:12;100057.09;;;4.42;78.66
76311;BME280;65120;59.304;18.294;2023-01-09T01:03:39;100057.09;;;4.42;78.69
76311;BME280;65120;59.304;18.294;2023-01-09T01:06:06;100056.22;;;4.43;78.62
76311;BME280;65120;59.304;18.294;2023-01-09T01:08:52;100055.38;;;4.43;78.64
76311;BME280;65120;59.304;18.294;2023-01-09T01:11:20;100051.94;;;4.42;78.71
76311;BME280;65120;59.304;18.294;2023-01-09T01:13:47;100058.81;;;4.45;78.79
76311;BME280;65120;59.304;18.294;2023-01-09T01:16:15;100060.53;;;4.46;78.59
76311;BME280;65120;59.304;18.294;2023-01-09T01:18:42;100005.53;;;4.13;78.78
76311;BME280;65120;59.304;18.294;2023-01-09T01:21:11;100050.19;;;4.46;78.86
76311;BME280;65120;59.304;18.294;2023-01-09T01:23:38;100052.75;;;4.46;78.80
76311;BME280;65120;59.304;18.294;2023-01-09T01:26:08;100021.81;;;4.31;78.55
76311;BME280;65120;59.304;18.294;2023-01-09T01:28:36;100053.63;;;4.48;78.76
76311;BME280;65120;59.304;18.294;2023-01-09T01:31:03;100049.31;;;4.48;78.66
76311;BME280;65120;59.304;18.294;2023-01-09T01:33:32;100047.59;;;4.47;78.83
76311;BME280;65120;59.304;18.294;2023-01-09T01:36:01;100057.91;;;4.49;78.69
76311;BME280;65120;59.304;18.294;2023-01-09T01:38:28;100055.34;;;4.49;78.71
76311;BME280;65120;59.304;18.294;2023-01-09T01:40:55;100051.00;;;4.49;78.71
76311;BME280;65120;59.304;18.294;2023-01-09T01:43:23;100054.47;;;4.51;78.48
76311;BME280;65120;59.304;18.294;2023-01-09T01:45:50;100051.91;;;4.50;78.81
76311;BME280;65120;59.304;18.294;2023-01-09T01:48:21;100051.03;;;4.51;78.65
76311;BME280;65120;59.304;18.294;2023-01-09T01:50:51;100049.28;;;4.53;78.67
76311;BME280;65120;59.304;18.294;2023-01-09T01:53:21;100035.53;;;4.45;78.84
76311;BME280;65120;59.304;18.294;2023-01-09T01:56:05;100036.38;;;4.45;78.77
76311;BME280;65120;59.304;18.294;2023-01-09T01:58:37;100041.53;;;4.53;78.49
76311;BME280;65120;59.304;18.294;2023-01-09T02:01:08;100049.28;;;4.56;78.80
76311;BME280;65120;59.304;18.294;2023-01-09T02:03:35;100045.84;;;4.56;78.93
76311;BME280;65120;59.304;18.294;2023-01-09T02:06:05;100045.81;;;4.57;78.62
76311;BME280;65120;59.304;18.294;2023-01-09T02:08:32;100038.03;;;4.57;78.91
76311;BME280;65120;59.304;18.294;2023-01-09T02:11:00;100036.31;;;4.59;78.93
76311;BME280;65120;59.304;18.294;2023-01-09T02:13:28;100031.16;;;4.59;78.81
76311;BME280;65120;59.304;18.294;2023-01-09T02:16:05;100027.69;;;4.60;78.99
76311;BME280;65120;59.304;18.294;2023-01-09T02:18:46;100032.00;;;4.61;78.83
76311;BME280;65120;59.304;18.294;2023-01-09T02:21:22;100033.72;;;4.61;78.84
76311;BME280;65120;59.304;18.294;2023-01-09T02:24:19;100030.28;;;4.62;78.79
76311;BME280;65120;59.304;18.294;2023-01-09T02:27:00;100028.53;;;4.62;79.02
76311;BME280;65120;59.304;18.294;2023-01-09T02:32:43;100027.69;;;4.60;79.04
76311;BME280;65120;59.304;18.294;2023-01-09T02:35:21;100019.09;;;4.58;78.84
76311;BME280;65120;59.304;18.294;2023-01-09T02:37:59;100005.31;;;4.53;78.97
76311;BME280;65120;59.304;18.294;2023-01-09T02:40:33;100020.78;;;4.62;78.71
76311;BME280;65120;59.304;18.294;2023-01-09T02:43:04;100012.19;;;4.57;78.92
76311;BME280;65120;59.304;18.294;2023-01-09T02:45:32;100028.53;;;4.67;78.94
76311;BME280;65120;59.304;18.294;2023-01-09T02:48:01;100031.09;;;4.68;78.76
76311;BME280;65120;59.304;18.294;2023-01-09T02:50:35;100026.78;;;4.67;79.35
76311;BME280;65120;59.304;18.294;2023-01-09T02:53:23;100031.09;;;4.68;78.90
76311;BME280;65120;59.304;18.294;2023-01-09T02:56:12;100031.06;;;4.71;78.91
76311;BME280;65120;59.304;18.294;2023-01-09T02:58:57;100036.22;;;4.71;78.86
76311;BME280;65120;59.304;18.294;2023-01-09T03:01:40;100034.50;;;4.73;78.91
76311;BME280;65120;59.304;18.294;2023-01-09T03:04:16;100031.06;;;4.71;79.05
76311;BME280;65120;59.304;18.294;2023-01-09T03:06:50;100033.63;;;4.74;79.12
76311;BME280;65120;59.304;18.294;2023-01-09T03:09:24;100037.06;;;4.77;79.21
76311;BME280;65120;59.304;18.294;2023-01-09T03:11:56;100042.25;;;4.77;79.11
76311;BME280;65120;59.304;18.294;2023-01-09T03:14:25;100036.19;;;4.78;78.71
76311;BME280;65120;59.304;18.294;2023-01-09T03:16:56;100019.03;;;4.67;79.04
76311;BME280;65120;59.304;18.294;2023-01-09T03:19:29;100043.97;;;4.79;79.06
76311;BME280;65120;59.304;18.294;2023-01-09T03:21:57;100033.59;;;4.79;78.83
76311;BME280;65120;59.304;18.294;2023-01-09T03:24:24;100016.41;;;4.69;78.87
76311;BME280;65120;59.304;18.294;2023-01-09T03:26:51;100038.75;;;4.81;79.18
76311;BME280;65120;59.304;18.294;2023-01-09T03:29:19;100025.88;;;4.74;78.76
76311;BME280;65120;59.304;18.294;2023-01-09T03:31:46;100037.91;;;4.82;78.85
76311;BME280;65120;59.304;18.294;2023-01-09T03:34:13;100033.56;;;4.84;78.98
76311;BME280;65120;59.304;18.294;2023-01-09T03:36:42;100018.97;;;4.77;78.92
76311;BME280;65120;59.304;18.294;2023-01-09T03:39:09;100036.13;;;4.84;78.97
76311;BME280;65120;59.304;18.294;2023-01-09T03:41:35;100033.56;;;4.84;79.15
76311;BME280;65120;59.304;18.294;2023-01-09T03:44:02;100031.84;;;4.84;79.02
76311;BME280;65120;59.304;18.294;2023-01-09T03:46:29;100027.56;;;4.82;79.25
76311;BME280;65120;59.304;18.294;2023-01-09T03:48:56;100023.19;;;4.84;78.74
76311;BME280;65120;59.304;18.294;2023-01-09T03:51:23;100031.81;;;4.86;78.79
76311;BME280;65120;59.304;18.294;2023-01-09T03:53:51;100028.38;;;4.85;79.01
76311;BME280;65120;59.304;18.294;2023-01-09T03:56:18;100014.66;;;4.76;78.91
76311;BME280;65120;59.304;18.294;2023-01-09T03:58:45;100032.69;;;4.88;79.00
76311;BME280;65120;59.304;18.294;2023-01-09T04:01:14;100018.97;;;4.77;78.97
76311;BME280;65120;59.304;18.294;2023-01-09T04:03:41;100034.41;;;4.87;79.00
76311;BME280;65120;59.304;18.294;2023-01-09T04:06:08;99996.63;;;4.63;78.81
76311;BME280;65120;59.304;18.294;2023-01-09T04:08:35;100024.97;;;4.82;78.91
76311;BME280;65120;59.304;18.294;2023-01-09T04:11:03;100043.88;;;4.91;78.78
76311;BME280;65120;59.304;18.294;2023-01-09T04:13:30;100049.88;;;4.92;78.82
76311;BME280;65120;59.304;18.294;2023-01-09T04:15:57;100046.44;;;4.93;78.69
76311;BME280;65120;59.304;18.294;2023-01-09T04:18:24;100047.31;;;4.93;78.90
76311;BME280;65120;59.304;18.294;2023-01-09T04:20:51;100045.56;;;4.94;78.97
76311;BME280;65120;59.304;18.294;2023-01-09T04:23:17;100046.44;;;4.96;78.86
76311;BME280;65120;59.304;18.294;2023-01-09T04:25:44;100047.28;;;4.96;78.84
76311;BME280;65120;59.304;18.294;2023-01-09T04:28:13;100026.66;;;4.86;79.15
76311;BME280;65120;59.304;18.294;2023-01-09T04:30:40;100042.97;;;4.97;78.72
76311;BME280;65120;59.304;18.294;2023-01-09T04:33:07;100049.88;;;4.98;78.84
76311;BME280;65120;59.304;18.294;2023-01-09T04:35:34;100039.53;;;4.98;78.73
76311;BME280;65120;59.304;18.294;2023-01-09T04:38:00;100043.81;;;4.99;78.98
76311;BME280;65120;59.304;18.294;2023-01-09T04:40:27;100036.06;;;4.99;78.63
76311;BME280;65120;59.304;18.294;2023-01-09T04:42:54;100028.28;;;4.99;78.72
76311;BME280;65120;59.304;18.294;2023-01-09T04:45:22;100039.50;;;5.00;78.82
76311;BME280;65120;59.304;18.294;2023-01-09T04:47:49;100023.13;;;4.96;78.71
76311;BME280;65120;59.304;18.294;2023-01-09T04:50:16;100035.22;;;4.95;78.67
76311;BME280;65120;59.304;18.294;2023-01-09T04:52:43;100039.50;;;5.01;78.76
76311;BME280;65120;59.304;18.294;2023-01-09T04:55:10;100033.44;;;5.01;78.86
76311;BME280;65120;59.304;18.294;2023-01-09T04:57:37;100039.50;;;5.01;78.62
76311;BME280;65120;59.304;18.294;2023-01-09T05:00:05;100034.34;;;4.98;78.72
76311;BME280;65120;59.304;18.294;2023-01-09T05:02:38;100044.66;;;5.01;78.69
76311;BME280;65120;59.304;18.294;2023-01-09T05:05:06;100049.84;;;5.01;78.54
76311;BME280;65120;59.304;18.294;2023-01-09T05:07:33;100043.78;;;5.01;78.67
76311;BME280;65120;59.304;18.294;2023-01-09T05:10:00;100044.66;;;5.01;78.63
76311;BME280;65120;59.304;18.294;2023-01-09T05:12:28;100038.63;;;5.02;78.76
76311;BME280;65120;59.304;18.294;2023-01-09T05:14:54;100036.06;;;4.99;78.66
76311;BME280;65120;59.304;18.294;2023-01-09T05:17:22;100039.47;;;5.04;78.62
76311;BME280;65120;59.304;18.294;2023-01-09T05:19:50;100047.22;;;5.03;78.65
76311;BME280;65120;59.304;18.294;2023-01-09T05:22:17;100037.72;;;5.03;78.57
76311;BME280;65120;59.304;18.294;2023-01-09T05:24:44;100041.16;;;5.04;78.49
76311;BME280;65120;59.304;18.294;2023-01-09T05:27:11;100036.94;;;4.98;78.50
76311;BME280;65120;59.304;18.294;2023-01-09T05:29:38;100038.59;;;5.04;78.54
76311;BME280;65120;59.304;18.294;2023-01-09T05:32:05;100039.47;;;5.04;78.78
76311;BME280;65120;59.304;18.294;2023-01-09T05:34:32;100036.88;;;5.04;78.66
76311;BME280;65120;59.304;18.294;2023-01-09T05:37:00;100046.34;;;5.05;78.66
76311;BME280;65120;59.304;18.294;2023-01-09T05:39:27;100046.34;;;5.05;78.76
76311;BME280;65120;59.304;18.294;2023-01-09T05:41:54;100040.34;;;5.02;78.53
76311;BME280;65120;59.304;18.294;2023-01-09T05:44:21;100046.38;;;5.02;78.73
76311;BME280;65120;59.304;18.294;2023-01-09T05:46:48;100043.75;;;5.04;78.93
76311;BME280;65120;59.304;18.294;2023-01-09T05:49:14;100055.00;;;5.04;78.72
76311;BME280;65120;59.304;18.294;2023-01-09T05:51:41;100058.44;;;5.03;78.48
76311;BME280;65120;59.304;18.294;2023-01-09T05:54:10;100052.44;;;5.00;78.76
76311;BME280;65120;59.304;18.294;2023-01-09T05:56:36;100063.63;;;5.03;78.96
76311;BME280;65120;59.304;18.294;2023-01-09T05:59:03;100065.34;;;5.04;78.59
76311;BME280;65120;59.304;18.294;2023-01-09T06:01:30;100067.06;;;5.05;78.56
76311;BME280;65120;59.304;18.294;2023-01-09T06:03:57;100071.34;;;5.06;78.70
76311;BME280;65120;59.304;18.294;2023-01-09T06:06:24;100060.16;;;5.06;78.64
76311;BME280;65120;59.304;18.294;2023-01-09T06:08:51;100065.31;;;5.06;78.71
76311;BME280;65120;59.304;18.294;2023-01-09T06:11:19;100059.28;;;5.04;78.81
76311;BME280;65120;59.304;18.294;2023-01-09T06:13:46;100061.88;;;5.07;78.78
76311;BME280;65120;59.304;18.294;2023-01-09T06:16:13;100058.41;;;5.06;78.73
76311;BME280;65120;59.304;18.294;2023-01-09T06:18:40;100060.16;;;5.07;78.66
76311;BME280;65120;59.304;18.294;2023-01-09T06:21:06;100069.63;;;5.08;78.69
76311;BME280;65120;59.304;18.294;2023-01-09T06:23:33;100064.44;;;5.08;78.66
76311;BME280;65120;59.304;18.294;2023-01-09T06:26:00;100067.03;;;5.08;78.78
76311;BME280;65120;59.304;18.294;2023-01-09T06:28:28;100067.03;;;5.10;78.72
76311;BME280;65120;59.304;18.294;2023-01-09T06:30:55;100060.97;;;5.09;79.02
76311;BME280;65120;59.304;18.294;2023-01-09T06:33:22;100065.31;;;5.10;78.77
76311;BME280;65120;59.304;18.294;2023-01-09T06:35:49;100061.88;;;5.10;78.88
76311;BME280;65120;59.304;18.294;2023-01-09T06:38:16;100064.44;;;5.10;78.56
76311;BME280;65120;59.304;18.294;2023-01-09T06:40:43;100073.06;;;5.10;78.72
76311;BME280;65120;59.304;18.294;2023-01-09T06:43:10;100077.38;;;5.11;78.69
76311;BME280;65120;59.304;18.294;2023-01-09T06:45:38;100075.66;;;5.10;78.73
76311;BME280;65120;59.304;18.294;2023-01-09T06:48:05;100073.06;;;5.09;78.52
76311;BME280;65120;59.304;18.294;2023-01-09T06:50:32;100079.09;;;5.11;78.66
76311;BME280;65120;59.304;18.294;2023-01-09T06:52:59;100077.38;;;5.11;78.70
76311;BME280;65120;59.304;18.294;2023-01-09T06:55:26;100074.81;;;5.08;78.78
76311;BME280;65120;59.304;18.294;2023-01-09T06:57:53;100079.09;;;5.12;78.61
76311;BME280;65120;59.304;18.294;2023-01-09T07:00:20;100072.25;;;5.05;78.47
76311;BME280;65120;59.304;18.294;2023-01-09T07:02:48;100074.78;;;5.13;78.66
76311;BME280;65120;59.304;18.294;2023-01-09T07:05:15;100082.53;;;5.13;78.73
76311;BME280;65120;59.304;18.294;2023-01-09T07:07:42;100079.97;;;5.13;78.56
76311;BME280;65120;59.304;18.294;2023-01-09T07:10:10;100077.38;;;5.11;78.54
76311;BME280;65120;59.304;18.294;2023-01-09T07:12:37;100085.13;;;5.13;78.62
76311;BME280;65120;59.304;18.294;2023-01-09T07:15:05;100087.72;;;5.13;78.61
76311;BME280;65120;59.304;18.294;2023-01-09T07:17:32;100089.47;;;5.12;78.42
76311;BME280;65120;59.304;18.294;2023-01-09T07:20:00;100099.81;;;5.12;78.48
76311;BME280;65120;59.304;18.294;2023-01-09T07:22:27;100110.16;;;5.12;78.45
76311;BME280;65120;59.304;18.294;2023-01-09T07:24:54;100101.53;;;5.13;78.46
76311;BME280;65120;59.304;18.294;2023-01-09T07:27:20;100102.38;;;5.14;78.75
76311;BME280;65120;59.304;18.294;2023-01-09T07:29:47;100107.56;;;5.14;78.62
76311;BME280;65120;59.304;18.294;2023-01-09T07:32:15;100104.13;;;5.10;78.57
76311;BME280;65120;59.304;18.294;2023-01-09T07:34:42;100117.03;;;5.15;78.57
76311;BME280;65120;59.304;18.294;2023-01-09T07:37:11;100119.63;;;5.15;78.53
76311;BME280;65120;59.304;18.294;2023-01-09T07:39:37;100113.59;;;5.14;78.65
76311;BME280;65120;59.304;18.294;2023-01-09T07:42:04;100125.69;;;5.15;78.69
76311;BME280;65120;59.304;18.294;2023-01-09T07:44:31;100123.09;;;5.15;78.12
76311;BME280;65120;59.304;18.294;2023-01-09T07:46:58;100126.53;;;5.16;78.56
76311;BME280;65120;59.304;18.294;2023-01-09T07:49:25;100140.34;;;5.16;78.66
76311;BME280;65120;59.304;18.294;2023-01-09T07:51:53;100136.03;;;5.15;78.38
76311;BME280;65120;59.304;18.294;2023-01-09T07:54:21;100122.28;;;5.07;78.58
76311;BME280;65120;59.304;18.294;2023-01-09T07:56:48;100141.19;;;5.17;78.69
76311;BME280;65120;59.304;18.294;2023-01-09T07:59:15;100137.75;;;5.15;78.59
76311;BME280;65120;59.304;18.294;2023-01-09T08:01:42;100138.59;;;5.17;78.64
76311;BME280;65120;59.304;18.294;2023-01-09T08:04:09;100145.50;;;5.16;78.55
76311;BME280;65120;59.304;18.294;2023-01-09T08:06:36;100143.78;;;5.18;78.64
76311;BME280;65120;59.304;18.294;2023-01-09T08:09:03;100143.78;;;5.18;78.63
76311;BME280;65120;59.304;18.294;2023-01-09T08:11:31;100132.63;;;5.10;78.51
76311;BME280;65120;59.304;18.294;2023-01-09T08:13:58;100142.91;;;5.16;78.52
76311;BME280;65120;59.304;18.294;2023-01-09T08:16:25;100141.19;;;5.18;78.61
76311;BME280;65120;59.304;18.294;2023-01-09T08:18:51;100141.19;;;5.18;78.45
76311;BME280;65120;59.304;18.294;2023-01-09T08:21:18;100136.00;;;5.18;78.50
76311;BME280;65120;59.304;18.294;2023-01-09T08:23:45;100137.75;;;5.16;78.74
76311;BME280;65120;59.304;18.294;2023-01-09T08:26:12;100140.34;;;5.16;78.46
76311;BME280;65120;59.304;18.294;2023-01-09T08:28:40;100137.75;;;5.18;78.45
76311;BME280;65120;59.304;18.294;2023-01-09T08:31:07;100145.50;;;5.16;78.38
76311;BME280;65120;59.304;18.294;2023-01-09T08:33:34;100148.97;;;5.15;78.28
76311;BME280;65120;59.304;18.294;2023-01-09T08:36:01;100143.81;;;5.11;78.49
76311;BME280;65120;59.304;18.294;2023-01-09T08:38:28;100148.16;;;5.07;78.32
76311;BME280;65120;59.304;18.294;2023-01-09T08:40:54;100161.06;;;5.13;78.28
76311;BME280;65120;59.304;18.294;2023-01-09T08:43:21;100161.94;;;5.12;78.25
76311;BME280;65120;59.304;18.294;2023-01-09T08:46:12;100163.69;;;5.10;78.32
76311;BME280;65120;59.304;18.294;2023-01-09T08:49:00;100165.41;;;5.08;78.41
76311;BME280;65120;59.304;18.294;2023-01-09T08:51:27;100166.25;;;5.12;78.35
76311;BME280;65120;59.304;18.294;2023-01-09T08:53:54;100168.00;;;5.08;78.30
76311;BME280;65120;59.304;18.294;2023-01-09T08:56:21;100175.75;;;5.11;78.43
76311;BME280;65120;59.304;18.294;2023-01-09T08:58:47;100172.31;;;5.11;78.44
76311;BME280;65120;59.304;18.294;2023-01-09T09:01:16;100174.88;;;5.11;78.26
76311;BME280;65120;59.304;18.294;2023-01-09T09:03:42;100173.16;;;5.11;78.16
76311;BME280;65120;59.304;18.294;2023-01-09T09:06:09;100167.13;;;5.11;78.38
76311;BME280;65120;59.304;18.294;2023-01-09T09:08:36;100165.38;;;5.11;78.40
76311;BME280;65120;59.304;18.294;2023-01-09T09:11:03;100171.44;;;5.13;78.40
76311;BME280;65120;59.304;18.294;2023-01-09T09:13:30;100166.25;;;5.13;78.01
76311;BME280;65120;59.304;18.294;2023-01-09T09:15:57;100168.84;;;5.13;78.25
76311;BME280;65120;59.304;18.294;2023-01-09T09:18:25;100178.31;;;5.14;78.18
76311;BME280;65120;59.304;18.294;2023-01-09T09:20:52;100176.59;;;5.13;78.07
76311;BME280;65120;59.304;18.294;2023-01-09T09:23:19;100179.19;;;5.13;78.16
76311;BME280;65120;59.304;18.294;2023-01-09T09:25:47;100163.69;;;5.07;78.44
76311;BME280;65120;59.304;18.294;2023-01-09T09:28:14;100170.53;;;5.14;78.34
76311;BME280;65120;59.304;18.294;2023-01-09T09:30:40;100171.41;;;5.15;78.45
76311;BME280;65120;59.304;18.294;2023-01-09T09:33:08;100167.13;;;5.12;78.47
76311;BME280;65120;59.304;18.294;2023-01-09T09:35:36;100168.81;;;5.15;78.25
76311;BME280;65120;59.304;18.294;2023-01-09T09:38:04;100174.88;;;5.15;78.60
76311;BME280;65120;59.304;18.294;2023-01-09T09:40:46;100174.88;;;5.15;78.36
76311;BME280;65120;59.304;18.294;2023-01-09T09:43:33;100142.16;;;4.99;78.37
76311;BME280;65120;59.304;18.294;2023-01-09T09:46:26;100172.28;;;5.15;78.39
76311;BME280;65120;59.304;18.294;2023-01-09T09:48:58;100173.97;;;5.15;78.19
76311;BME280;65120;59.304;18.294;2023-01-09T09:51:42;100180.06;;;5.15;78.45
76311;BME280;65120;59.304;18.294;2023-01-09T09:54:17;100171.41;;;5.15;78.43
76311;BME280;65120;59.304;18.294;2023-01-09T09:56:49;100155.06;;;5.05;78.27
76311;BME280;65120;59.304;18.294;2023-01-09T09:59:20;100170.53;;;5.14;78.33
76311;BME280;65120;59.304;18.294;2023-01-09T10:01:51;100168.84;;;5.13;78.45
76311;BME280;65120;59.304;18.294;2023-01-09T10:04:22;100172.28;;;5.15;78.47
76311;BME280;65120;59.304;18.294;2023-01-09T10:06:55;100167.13;;;5.11;78.50
76311;BME280;65120;59.304;18.294;2023-01-09T10:09:32;100177.47;;;5.15;78.37
76311;BME280;65120;59.304;18.294;2023-01-09T10:12:11;100180.03;;;5.14;78.49
76311;BME280;65120;59.304;18.294;2023-01-09T10:14:41;100155.09;;;5.02;78.33
76311;BME280;65120;59.304;18.294;2023-01-09T10:20:25;100166.28;;;5.07;78.11
76311;BME280;65120;59.304;18.294;2023-01-09T10:23:04;100180.91;;;5.14;78.21
76311;BME280;65120;59.304;18.294;2023-01-09T10:25:39;100169.72;;;5.12;78.25
76311;BME280;65120;59.304;18.294;2023-01-09T10:28:20;100156.78;;;5.12;78.21
76311;BME280;65120;59.304;18.294;2023-01-09T10:30:55;100162.81;;;5.13;78.18
76311;BME280;65120;59.304;18.294;2023-01-09T10:33:35;100153.28;;;5.12;78.39
76311;BME280;65120;59.304;18.294;2023-01-09T10:36:31;100155.06;;;5.10;78.50
76311;BME280;65120;59.304;18.294;2023-01-09T10:39:08;100161.09;;;5.07;78.56
76311;BME280;65120;59.304;18.294;2023-01-09T10:41:39;100157.66;;;5.10;78.33
76311;BME280;65120;59.304;18.294;2023-01-09T10:44:13;100161.09;;;5.10;78.37
76311;BME280;65120;59.304;18.294;2023-01-09T10:46:46;100158.50;;;5.10;78.33
76311;BME280;65120;59.304;18.294;2023-01-09T10:49:16;100160.22;;;5.08;78.44
76311;BME280;65120;59.304;18.294;2023-01-09T10:51:46;100163.66;;;5.09;78.46
76311;BME280;65120;59.304;18.294;2023-01-09T10:54:16;100175.75;;;5.08;78.43
76311;BME280;65120;59.304;18.294;2023-01-09T10:56:52;100181.81;;;5.10;78.39
76311;BME280;65120;59.304;18.294;2023-01-09T10:59:20;100174.06;;;5.07;78.54
76311;BME280;65120;59.304;18.294;2023-01-09T11:01:48;100174.06;;;5.07;78.56
76311;BME280;65120;59.304;18.294;2023-01-09T11:04:22;100162.84;;;5.05;78.60
76311;BME280;65120;59.304;18.294;2023-01-09T11:06:54;100164.53;;;5.06;78.70
76311;BME280;65120;59.304;18.294;2023-01-09T11:09:23;100168.88;;;5.06;78.64
76311;BME280;65120;59.304;18.294;2023-01-09T11:11:50;100163.72;;;5.04;78.78
76311;BME280;65120;59.304;18.294;2023-01-09T11:14:22;100165.41;;;5.04;78.66
76311;BME280;65120;59.304;18.294;2023-01-09T11:16:54;100163.72;;;5.04;78.79
76311;BME280;65120;59.304;18.294;2023-01-09T11:19:22;100147.38;;;4.96;78.49
76311;BME280;65120;59.304;18.294;2023-01-09T11:21:50;100161.13;;;5.04;78.78
76311;BME280;65120;59.304;18.294;2023-01-09T11:24:32;100157.66;;;5.04;79.14
76311;BME280;65120;59.304;18.294;2023-01-09T11:27:29;100155.94;;;5.04;78.84
76311;BME280;65120;59.304;18.294;2023-01-09T11:30:13;100164.56;;;5.03;79.01
76311;BME280;65120;59.304;18.294;2023-01-09T11:32:41;100166.31;;;5.03;78.74
76311;BME280;65120;59.304;18.294;2023-01-09T11:35:17;100182.69;;;5.03;78.82
76311;BME280;65120;59.304;18.294;2023-01-09T11:37:44;100182.69;;;5.03;78.69
76311;BME280;65120;59.304;18.294;2023-01-09T11:40:18;100187.88;;;5.05;78.88
76311;BME280;65120;59.304;18.294;2023-01-09T11:43:07;100168.94;;;4.96;78.42
76311;BME280;65120;59.304;18.294;2023-01-09T11:45:42;100183.53;;;5.05;78.91
76311;BME280;65120;59.304;18.294;2023-01-09T11:48:25;100185.25;;;5.06;78.84
76311;BME280;65120;59.304;18.294;2023-01-09T11:50:55;100179.22;;;5.07;78.79
76311;BME280;65120;59.304;18.294;2023-01-09T11:53:23;100175.81;;;5.02;78.76
76311;BME280;65120;59.304;18.294;2023-01-09T11:55:57;100184.41;;;5.07;78.72
76311;BME280;65120;59.304;18.294;2023-01-09T11:58:30;100175.75;;;5.08;78.74
76311;BME280;65120;59.304;18.294;2023-01-09T12:01:08;100162.84;;;5.01;78.56
76311;BME280;65120;59.304;18.294;2023-01-09T12:03:56;100149.97;;;4.96;78.52
76311;BME280;65120;59.304;18.294;2023-01-09T12:06:35;100171.44;;;5.10;78.62
76311;BME280;65120;59.304;18.294;2023-01-09T12:09:07;100167.97;;;5.11;78.77
76311;BME280;65120;59.304;18.294;2023-01-09T12:11:44;100167.13;;;5.12;78.83
76311;BME280;65120;59.304;18.294;2023-01-09T12:14:30;100167.13;;;5.12;78.67
76311;BME280;65120;59.304;18.294;2023-01-09T12:17:22;100166.25;;;5.13;78.65
76311;BME280;65120;59.304;18.294;2023-01-09T12:20:18;100151.59;;;5.11;78.86
76311;BME280;65120;59.304;18.294;2023-01-09T12:22:53;100153.31;;;5.13;78.66
76311;BME280;65120;59.304;18.294;2023-01-09T12:25:32;100149.84;;;5.14;78.77
76311;BME280;65120;59.304;18.294;2023-01-09T12:28:18;100144.66;;;5.14;78.63
76311;BME280;65120;59.304;18.294;2023-01-09T12:30:58;100148.09;;;5.15;78.86
76311;BME280;65120;59.304;18.294;2023-01-09T12:33:37;100154.16;;;5.15;78.95
76311;BME280;65120;59.304;18.294;2023-01-09T12:36:15;100150.69;;;5.16;78.62
76311;BME280;65120;59.304;18.294;2023-01-09T12:38:47;100148.09;;;5.16;78.78
76311;BME280;65120;59.304;18.294;2023-01-09T12:41:36;100167.06;;;5.17;78.87
76311;BME280;65120;59.304;18.294;2023-01-09T12:44:22;100154.13;;;5.17;78.70
76311;BME280;65120;59.304;18.294;2023-01-09T12:47:00;100163.63;;;5.16;78.92
76311;BME280;65120;59.304;18.294;2023-01-09T12:49:34;100167.97;;;5.16;78.91
76311;BME280;65120;59.304;18.294;2023-01-09T12:52:06;100146.44;;;5.03;78.83
76311;BME280;65120;59.304;18.294;2023-01-09T12:54:40;100172.28;;;5.15;78.72
76311;BME280;65120;59.304;18.294;2023-01-09T12:57:14;100163.69;;;5.10;78.92
76311;BME280;65120;59.304;18.294;2023-01-09T12:59:48;100166.25;;;5.13;78.85
76311;BME280;65120;59.304;18.294;2023-01-09T13:02:23;100174.88;;;5.14;78.78
76311;BME280;65120;59.304;18.294;2023-01-09T13:04:57;100180.91;;;5.14;78.92
76311;BME280;65120;59.304;18.294;2023-01-09T13:07:29;100181.75;;;5.15;78.65
76311;BME280;65120;59.304;18.294;2023-01-09T13:09:59;100184.34;;;5.15;78.90
76311;BME280;65120;59.304;18.294;2023-01-09T13:12:32;100180.03;;;5.14;78.86
76311;BME280;65120;59.304;18.294;2023-01-09T13:15:06;100180.94;;;5.13;79.14